الصفحة الرئيسية
METAR-TAF:

METAR-TAF

مطار :

زاهدان, إيران

دائرة عرض: 29-28N, خط طول: 060-53E, ارتفاع: 1370 متر

مراقبة الطقس الحالي

تاريخ ووقت الإصدار 36 دقيقة قبل الساعة 22:00UTC
ريح 8 عقدة من الشرق/الشمال الشرقي
درجة الحرارة 29°درجة مئوية
الرطوبة 20%
ضغط 1008 hPa
الرؤية 10 كم أو أكثر
الغيوم لا تقل 1500 م ولا وجود لمزنة ركامية السحاب الأسود

METAR: OIZH 212200Z 06008KT CAVOK 29/04 Q1008 A2978

زمن: 03:06 (22:36 UTC)

توقعات

تاريخ ووقت الإصدار 5ساعات و 6 دقيقة قبل الساعة 17:30UTC
التوقعات صالحة من21 الساعة 18 UTC إلى 22 الساعة 24 UTC
ريح 8 عقدة من الشمال/الشمال الشرقي
الرؤية: 7000 متر

TAF: OIZH 211730Z 2118/2224 03008KT 7000 NSC

أرصاد الطقس والتوقعات من أكثر من 4000 مطار (تقارير الطقس للمطار METAR والتنبؤ بالطقس بالمطارTAF).

المحطات المتاحة هي النقط الصفراء والحمراء على الخريطة.

حرك المؤشر فوق النقطة لمعرفة اسم المحطة.

ثم انقر لمعرفة أرصاد وتوقعات الطقس.

لتغيير الخارطة: اضغط على الأزرار الخضراء مع رمز الصليب الأسود للتكبير. على الزر الأخضر مع شرطة للتصغير، أو على الأسهم الخضراء للخرائط المجاورة.


METAR-TAF: